sensor_id;sensor_type;location;lat;lon;timestamp;P1;durP1;ratioP1;P2;durP2;ratioP2
71606;SDS011;60641;53.556;9.914;2022-11-11T00:00:37;8.10;;;1.70;;
71606;SDS011;60641;53.556;9.914;2022-11-11T00:03:14;6.90;;;1.50;;
71606;SDS011;60641;53.556;9.914;2022-11-11T00:05:41;10.00;;;1.70;;
71606;SDS011;60641;53.556;9.914;2022-11-11T00:08:07;8.20;;;2.00;;
71606;SDS011;60641;53.556;9.914;2022-11-11T00:10:34;12.10;;;2.00;;
71606;SDS011;60641;53.556;9.914;2022-11-11T00:13:00;8.10;;;1.80;;
71606;SDS011;60641;53.556;9.914;2022-11-11T00:15:27;8.70;;;1.80;;
71606;SDS011;60641;53.556;9.914;2022-11-11T00:17:54;9.70;;;1.90;;
71606;SDS011;60641;53.556;9.914;2022-11-11T00:20:39;10.20;;;2.00;;
71606;SDS011;60641;53.556;9.914;2022-11-11T00:23:25;9.60;;;1.80;;
71606;SDS011;60641;53.556;9.914;2022-11-11T00:26:12;8.00;;;1.90;;
71606;SDS011;60641;53.556;9.914;2022-11-11T00:28:39;12.00;;;2.30;;
71606;SDS011;60641;53.556;9.914;2022-11-11T00:31:08;11.70;;;2.20;;
71606;SDS011;60641;53.556;9.914;2022-11-11T00:33:36;7.90;;;2.40;;
71606;SDS011;60641;53.556;9.914;2022-11-11T00:36:04;11.00;;;2.50;;
71606;SDS011;60641;53.556;9.914;2022-11-11T00:38:31;8.40;;;2.30;;
71606;SDS011;60641;53.556;9.914;2022-11-11T00:41:11;9.10;;;2.30;;
71606;SDS011;60641;53.556;9.914;2022-11-11T00:43:38;9.50;;;2.40;;
71606;SDS011;60641;53.556;9.914;2022-11-11T00:46:05;10.10;;;2.90;;
71606;SDS011;60641;53.556;9.914;2022-11-11T00:48:50;10.40;;;2.70;;
71606;SDS011;60641;53.556;9.914;2022-11-11T00:51:35;10.80;;;2.70;;
71606;SDS011;60641;53.556;9.914;2022-11-11T00:54:02;10.10;;;3.10;;
71606;SDS011;60641;53.556;9.914;2022-11-11T00:56:28;10.40;;;2.70;;
71606;SDS011;60641;53.556;9.914;2022-11-11T00:58:55;9.00;;;2.90;;
71606;SDS011;60641;53.556;9.914;2022-11-11T01:01:21;7.70;;;2.70;;
71606;SDS011;60641;53.556;9.914;2022-11-11T01:03:48;8.80;;;2.90;;
71606;SDS011;60641;53.556;9.914;2022-11-11T01:06:14;8.70;;;3.00;;
71606;SDS011;60641;53.556;9.914;2022-11-11T01:08:41;10.90;;;2.90;;
71606;SDS011;60641;53.556;9.914;2022-11-11T01:11:11;8.90;;;2.70;;
71606;SDS011;60641;53.556;9.914;2022-11-11T01:13:42;12.80;;;3.10;;
71606;SDS011;60641;53.556;9.914;2022-11-11T01:16:13;10.10;;;2.50;;
71606;SDS011;60641;53.556;9.914;2022-11-11T01:18:41;13.10;;;3.80;;
71606;SDS011;60641;53.556;9.914;2022-11-11T01:21:12;12.30;;;3.10;;
71606;SDS011;60641;53.556;9.914;2022-11-11T01:23:41;13.10;;;2.60;;
71606;SDS011;60641;53.556;9.914;2022-11-11T01:26:24;12.80;;;3.20;;
71606;SDS011;60641;53.556;9.914;2022-11-11T01:28:52;8.70;;;2.90;;
71606;SDS011;60641;53.556;9.914;2022-11-11T01:31:21;7.90;;;2.50;;
71606;SDS011;60641;53.556;9.914;2022-11-11T01:33:49;9.30;;;2.70;;
71606;SDS011;60641;53.556;9.914;2022-11-11T01:36:19;10.90;;;3.10;;
71606;SDS011;60641;53.556;9.914;2022-11-11T01:38:48;11.80;;;3.30;;
71606;SDS011;60641;53.556;9.914;2022-11-11T01:41:30;12.50;;;3.10;;
71606;SDS011;60641;53.556;9.914;2022-11-11T01:44:02;11.70;;;2.70;;
71606;SDS011;60641;53.556;9.914;2022-11-11T01:49:29;10.90;;;2.90;;
71606;SDS011;60641;53.556;9.914;2022-11-11T01:52:12;13.30;;;3.00;;
71606;SDS011;60641;53.556;9.914;2022-11-11T01:54:44;8.70;;;2.90;;
71606;SDS011;60641;53.556;9.914;2022-11-11T01:57:15;11.00;;;3.10;;
71606;SDS011;60641;53.556;9.914;2022-11-11T01:59:45;10.70;;;2.90;;
71606;SDS011;60641;53.556;9.914;2022-11-11T02:02:21;12.30;;;3.00;;
71606;SDS011;60641;53.556;9.914;2022-11-11T02:04:51;9.90;;;3.00;;
71606;SDS011;60641;53.556;9.914;2022-11-11T02:07:35;12.10;;;3.10;;
71606;SDS011;60641;53.556;9.914;2022-11-11T02:10:05;12.10;;;3.10;;
71606;SDS011;60641;53.556;9.914;2022-11-11T02:12:33;9.30;;;2.60;;
71606;SDS011;60641;53.556;9.914;2022-11-11T02:15:18;10.30;;;3.00;;
71606;SDS011;60641;53.556;9.914;2022-11-11T02:17:48;10.90;;;3.10;;
71606;SDS011;60641;53.556;9.914;2022-11-11T02:20:20;12.30;;;3.10;;
71606;SDS011;60641;53.556;9.914;2022-11-11T02:25:38;10.50;;;2.90;;
71606;SDS011;60641;53.556;9.914;2022-11-11T02:28:07;12.20;;;2.90;;
71606;SDS011;60641;53.556;9.914;2022-11-11T02:30:34;12.50;;;2.80;;
71606;SDS011;60641;53.556;9.914;2022-11-11T02:33:01;15.10;;;3.20;;
71606;SDS011;60641;53.556;9.914;2022-11-11T02:35:31;11.50;;;2.60;;
71606;SDS011;60641;53.556;9.914;2022-11-11T02:37:59;10.80;;;2.70;;
71606;SDS011;60641;53.556;9.914;2022-11-11T02:40:47;11.50;;;2.40;;
71606;SDS011;60641;53.556;9.914;2022-11-11T02:43:32;8.50;;;2.50;;
71606;SDS011;60641;53.556;9.914;2022-11-11T02:45:59;11.20;;;3.30;;
71606;SDS011;60641;53.556;9.914;2022-11-11T02:48:27;11.30;;;2.60;;
71606;SDS011;60641;53.556;9.914;2022-11-11T02:50:54;8.00;;;2.40;;
71606;SDS011;60641;53.556;9.914;2022-11-11T02:53:20;10.00;;;2.50;;
71606;SDS011;60641;53.556;9.914;2022-11-11T02:55:47;11.80;;;3.00;;
71606;SDS011;60641;53.556;9.914;2022-11-11T02:58:14;10.70;;;3.20;;
71606;SDS011;60641;53.556;9.914;2022-11-11T03:00:41;8.10;;;2.70;;
71606;SDS011;60641;53.556;9.914;2022-11-11T03:03:08;8.70;;;2.90;;
71606;SDS011;60641;53.556;9.914;2022-11-11T03:05:35;10.50;;;2.70;;
71606;SDS011;60641;53.556;9.914;2022-11-11T03:08:02;10.50;;;3.00;;
71606;SDS011;60641;53.556;9.914;2022-11-11T03:10:29;9.10;;;2.90;;
71606;SDS011;60641;53.556;9.914;2022-11-11T03:12:55;12.40;;;2.60;;
71606;SDS011;60641;53.556;9.914;2022-11-11T03:15:22;9.30;;;2.50;;
71606;SDS011;60641;53.556;9.914;2022-11-11T03:17:48;10.80;;;3.00;;
71606;SDS011;60641;53.556;9.914;2022-11-11T03:20:15;9.10;;;2.90;;
71606;SDS011;60641;53.556;9.914;2022-11-11T03:25:32;9.40;;;2.80;;
71606;SDS011;60641;53.556;9.914;2022-11-11T03:28:09;9.20;;;2.50;;
71606;SDS011;60641;53.556;9.914;2022-11-11T03:30:40;11.10;;;2.60;;
71606;SDS011;60641;53.556;9.914;2022-11-11T03:33:08;11.40;;;3.10;;
71606;SDS011;60641;53.556;9.914;2022-11-11T03:35:34;10.20;;;2.70;;
71606;SDS011;60641;53.556;9.914;2022-11-11T03:38:02;10.80;;;2.60;;
71606;SDS011;60641;53.556;9.914;2022-11-11T03:40:41;8.50;;;2.70;;
71606;SDS011;60641;53.556;9.914;2022-11-11T03:43:09;11.70;;;3.00;;
71606;SDS011;60641;53.556;9.914;2022-11-11T03:45:36;12.30;;;3.60;;
71606;SDS011;60641;53.556;9.914;2022-11-11T03:48:02;9.00;;;2.70;;
71606;SDS011;60641;53.556;9.914;2022-11-11T03:50:30;9.80;;;3.00;;
71606;SDS011;60641;53.556;9.914;2022-11-11T03:52:57;12.10;;;3.00;;
71606;SDS011;60641;53.556;9.914;2022-11-11T03:55:24;10.40;;;2.70;;
71606;SDS011;60641;53.556;9.914;2022-11-11T03:57:50;12.60;;;2.90;;
71606;SDS011;60641;53.556;9.914;2022-11-11T04:00:18;11.80;;;3.30;;
71606;SDS011;60641;53.556;9.914;2022-11-11T04:02:46;11.30;;;3.00;;
71606;SDS011;60641;53.556;9.914;2022-11-11T04:05:31;12.20;;;3.10;;
71606;SDS011;60641;53.556;9.914;2022-11-11T04:08:27;10.10;;;2.90;;
71606;SDS011;60641;53.556;9.914;2022-11-11T04:11:12;9.90;;;3.00;;
71606;SDS011;60641;53.556;9.914;2022-11-11T04:13:41;10.60;;;2.90;;
71606;SDS011;60641;53.556;9.914;2022-11-11T04:16:26;10.90;;;2.90;;
71606;SDS011;60641;53.556;9.914;2022-11-11T04:19:02;12.00;;;3.60;;
71606;SDS011;60641;53.556;9.914;2022-11-11T04:21:47;12.70;;;3.20;;
71606;SDS011;60641;53.556;9.914;2022-11-11T04:24:18;10.50;;;3.10;;
71606;SDS011;60641;53.556;9.914;2022-11-11T04:27:06;13.00;;;3.40;;
71606;SDS011;60641;53.556;9.914;2022-11-11T04:29:33;11.60;;;3.50;;
71606;SDS011;60641;53.556;9.914;2022-11-11T04:32:06;12.00;;;3.10;;
71606;SDS011;60641;53.556;9.914;2022-11-11T04:34:54;8.30;;;2.90;;
71606;SDS011;60641;53.556;9.914;2022-11-11T04:37:22;11.30;;;3.20;;
71606;SDS011;60641;53.556;9.914;2022-11-11T04:39:49;10.00;;;3.00;;
71606;SDS011;60641;53.556;9.914;2022-11-11T04:42:34;12.80;;;3.20;;
71606;SDS011;60641;53.556;9.914;2022-11-11T04:45:01;11.00;;;3.20;;
71606;SDS011;60641;53.556;9.914;2022-11-11T04:48:03;9.80;;;2.80;;
71606;SDS011;60641;53.556;9.914;2022-11-11T04:50:31;13.20;;;3.50;;
71606;SDS011;60641;53.556;9.914;2022-11-11T04:53:00;13.40;;;3.30;;
71606;SDS011;60641;53.556;9.914;2022-11-11T04:55:28;10.20;;;3.20;;
71606;SDS011;60641;53.556;9.914;2022-11-11T04:58:13;8.80;;;3.30;;
71606;SDS011;60641;53.556;9.914;2022-11-11T05:00:40;8.10;;;2.90;;
71606;SDS011;60641;53.556;9.914;2022-11-11T05:03:09;9.00;;;3.30;;
71606;SDS011;60641;53.556;9.914;2022-11-11T05:08:36;10.20;;;3.40;;
71606;SDS011;60641;53.556;9.914;2022-11-11T05:11:23;10.40;;;3.10;;
71606;SDS011;60641;53.556;9.914;2022-11-11T05:13:51;11.90;;;3.50;;
71606;SDS011;60641;53.556;9.914;2022-11-11T05:16:39;14.10;;;3.40;;
71606;SDS011;60641;53.556;9.914;2022-11-11T05:19:25;12.90;;;3.50;;
71606;SDS011;60641;53.556;9.914;2022-11-11T05:24:56;12.30;;;3.50;;
71606;SDS011;60641;53.556;9.914;2022-11-11T05:27:42;9.40;;;3.20;;
71606;SDS011;60641;53.556;9.914;2022-11-11T05:30:09;8.50;;;2.90;;
71606;SDS011;60641;53.556;9.914;2022-11-11T05:32:38;11.50;;;3.40;;
71606;SDS011;60641;53.556;9.914;2022-11-11T05:35:05;12.00;;;3.20;;
71606;SDS011;60641;53.556;9.914;2022-11-11T05:37:32;9.30;;;3.40;;
71606;SDS011;60641;53.556;9.914;2022-11-11T05:39:59;9.50;;;3.30;;
71606;SDS011;60641;53.556;9.914;2022-11-11T05:42:25;16.70;;;4.00;;
71606;SDS011;60641;53.556;9.914;2022-11-11T05:44:52;11.50;;;4.30;;
71606;SDS011;60641;53.556;9.914;2022-11-11T05:47:19;10.20;;;3.70;;
71606;SDS011;60641;53.556;9.914;2022-11-11T05:49:46;13.80;;;4.00;;
71606;SDS011;60641;53.556;9.914;2022-11-11T05:52:14;14.20;;;4.20;;
71606;SDS011;60641;53.556;9.914;2022-11-11T05:54:44;10.60;;;4.40;;
71606;SDS011;60641;53.556;9.914;2022-11-11T05:57:11;11.40;;;4.10;;
71606;SDS011;60641;53.556;9.914;2022-11-11T05:59:40;13.10;;;4.00;;
71606;SDS011;60641;53.556;9.914;2022-11-11T06:02:07;13.20;;;4.20;;
71606;SDS011;60641;53.556;9.914;2022-11-11T06:04:34;12.20;;;4.70;;
71606;SDS011;60641;53.556;9.914;2022-11-11T06:07:01;10.80;;;4.20;;
71606;SDS011;60641;53.556;9.914;2022-11-11T06:09:27;14.70;;;3.90;;
71606;SDS011;60641;53.556;9.914;2022-11-11T06:11:54;11.20;;;4.50;;
71606;SDS011;60641;53.556;9.914;2022-11-11T06:14:20;10.50;;;4.30;;
71606;SDS011;60641;53.556;9.914;2022-11-11T06:16:47;12.80;;;5.20;;
71606;SDS011;60641;53.556;9.914;2022-11-11T06:19:13;12.90;;;4.90;;
71606;SDS011;60641;53.556;9.914;2022-11-11T06:21:40;14.40;;;4.70;;
71606;SDS011;60641;53.556;9.914;2022-11-11T06:24:22;10.40;;;4.30;;
71606;SDS011;60641;53.556;9.914;2022-11-11T06:26:49;16.10;;;5.10;;
71606;SDS011;60641;53.556;9.914;2022-11-11T06:29:16;11.50;;;5.20;;
71606;SDS011;60641;53.556;9.914;2022-11-11T06:31:43;16.60;;;5.80;;
71606;SDS011;60641;53.556;9.914;2022-11-11T06:34:11;15.50;;;5.70;;
71606;SDS011;60641;53.556;9.914;2022-11-11T06:36:37;15.30;;;5.20;;
71606;SDS011;60641;53.556;9.914;2022-11-11T06:39:04;12.10;;;5.10;;
71606;SDS011;60641;53.556;9.914;2022-11-11T06:41:31;14.90;;;6.10;;
71606;SDS011;60641;53.556;9.914;2022-11-11T06:43:57;13.10;;;5.40;;
71606;SDS011;60641;53.556;9.914;2022-11-11T06:46:24;15.40;;;5.70;;
71606;SDS011;60641;53.556;9.914;2022-11-11T06:48:51;14.80;;;5.80;;
71606;SDS011;60641;53.556;9.914;2022-11-11T06:51:18;15.40;;;5.90;;
71606;SDS011;60641;53.556;9.914;2022-11-11T06:53:45;20.30;;;7.00;;
71606;SDS011;60641;53.556;9.914;2022-11-11T06:56:11;17.30;;;6.00;;
71606;SDS011;60641;53.556;9.914;2022-11-11T06:58:38;14.60;;;6.30;;
71606;SDS011;60641;53.556;9.914;2022-11-11T07:01:05;15.20;;;6.00;;
71606;SDS011;60641;53.556;9.914;2022-11-11T07:03:32;17.80;;;5.80;;
71606;SDS011;60641;53.556;9.914;2022-11-11T07:06:02;19.70;;;6.80;;
71606;SDS011;60641;53.556;9.914;2022-11-11T07:08:29;18.10;;;6.10;;
71606;SDS011;60641;53.556;9.914;2022-11-11T07:10:56;12.40;;;5.40;;
71606;SDS011;60641;53.556;9.914;2022-11-11T07:13:23;16.40;;;5.90;;
71606;SDS011;60641;53.556;9.914;2022-11-11T07:15:49;18.20;;;6.00;;
71606;SDS011;60641;53.556;9.914;2022-11-11T07:18:16;16.20;;;6.10;;
71606;SDS011;60641;53.556;9.914;2022-11-11T07:20:43;17.50;;;6.50;;
71606;SDS011;60641;53.556;9.914;2022-11-11T07:23:09;15.30;;;6.20;;
71606;SDS011;60641;53.556;9.914;2022-11-11T07:25:35;20.00;;;7.50;;
71606;SDS011;60641;53.556;9.914;2022-11-11T07:28:02;15.50;;;6.40;;
71606;SDS011;60641;53.556;9.914;2022-11-11T07:30:28;18.30;;;6.50;;
71606;SDS011;60641;53.556;9.914;2022-11-11T07:32:55;15.70;;;6.40;;
71606;SDS011;60641;53.556;9.914;2022-11-11T07:35:21;16.50;;;6.80;;
71606;SDS011;60641;53.556;9.914;2022-11-11T07:37:48;14.90;;;6.50;;
71606;SDS011;60641;53.556;9.914;2022-11-11T07:40:15;17.90;;;6.90;;
71606;SDS011;60641;53.556;9.914;2022-11-11T07:42:42;15.50;;;6.50;;
71606;SDS011;60641;53.556;9.914;2022-11-11T07:45:09;17.30;;;7.20;;
71606;SDS011;60641;53.556;9.914;2022-11-11T07:47:37;15.40;;;6.00;;
71606;SDS011;60641;53.556;9.914;2022-11-11T07:50:04;20.10;;;7.00;;
71606;SDS011;60641;53.556;9.914;2022-11-11T07:52:31;20.50;;;7.90;;
71606;SDS011;60641;53.556;9.914;2022-11-11T07:54:58;19.30;;;7.30;;
71606;SDS011;60641;53.556;9.914;2022-11-11T07:57:24;19.10;;;7.30;;
71606;SDS011;60641;53.556;9.914;2022-11-11T07:59:51;17.40;;;7.20;;
71606;SDS011;60641;53.556;9.914;2022-11-11T08:02:17;22.60;;;7.50;;
71606;SDS011;60641;53.556;9.914;2022-11-11T08:04:44;18.40;;;7.30;;
71606;SDS011;60641;53.556;9.914;2022-11-11T08:07:11;17.40;;;7.30;;
71606;SDS011;60641;53.556;9.914;2022-11-11T08:09:37;14.90;;;7.30;;
71606;SDS011;60641;53.556;9.914;2022-11-11T08:12:04;22.30;;;8.10;;
71606;SDS011;60641;53.556;9.914;2022-11-11T08:14:48;20.80;;;8.20;;
71606;SDS011;60641;53.556;9.914;2022-11-11T08:17:15;19.70;;;7.40;;
71606;SDS011;60641;53.556;9.914;2022-11-11T08:19:41;23.10;;;8.10;;
71606;SDS011;60641;53.556;9.914;2022-11-11T08:22:08;16.70;;;7.20;;
71606;SDS011;60641;53.556;9.914;2022-11-11T08:24:35;17.40;;;7.30;;
71606;SDS011;60641;53.556;9.914;2022-11-11T08:27:01;14.40;;;6.90;;
71606;SDS011;60641;53.556;9.914;2022-11-11T08:29:28;17.80;;;7.40;;
71606;SDS011;60641;53.556;9.914;2022-11-11T08:31:55;17.00;;;7.70;;
71606;SDS011;60641;53.556;9.914;2022-11-11T08:34:23;18.80;;;7.10;;
71606;SDS011;60641;53.556;9.914;2022-11-11T08:36:49;15.70;;;7.00;;
71606;SDS011;60641;53.556;9.914;2022-11-11T08:39:16;19.70;;;7.80;;
71606;SDS011;60641;53.556;9.914;2022-11-11T08:41:43;18.00;;;7.70;;
71606;SDS011;60641;53.556;9.914;2022-11-11T08:44:10;17.50;;;7.30;;
71606;SDS011;60641;53.556;9.914;2022-11-11T08:46:37;17.30;;;7.20;;
71606;SDS011;60641;53.556;9.914;2022-11-11T08:49:03;17.20;;;8.10;;
71606;SDS011;60641;53.556;9.914;2022-11-11T08:51:30;20.40;;;7.90;;
71606;SDS011;60641;53.556;9.914;2022-11-11T08:53:56;16.10;;;7.60;;
71606;SDS011;60641;53.556;9.914;2022-11-11T08:56:23;15.60;;;7.30;;
71606;SDS011;60641;53.556;9.914;2022-11-11T08:58:50;17.00;;;8.10;;
71606;SDS011;60641;53.556;9.914;2022-11-11T09:01:16;17.60;;;8.00;;
71606;SDS011;60641;53.556;9.914;2022-11-11T09:03:43;15.90;;;7.50;;
71606;SDS011;60641;53.556;9.914;2022-11-11T09:06:11;27.00;;;7.80;;
71606;SDS011;60641;53.556;9.914;2022-11-11T09:08:40;16.10;;;7.60;;
71606;SDS011;60641;53.556;9.914;2022-11-11T09:11:07;17.00;;;7.10;;
71606;SDS011;60641;53.556;9.914;2022-11-11T09:13:33;16.70;;;7.70;;
71606;SDS011;60641;53.556;9.914;2022-11-11T09:16:00;15.60;;;7.00;;
71606;SDS011;60641;53.556;9.914;2022-11-11T09:18:26;17.80;;;8.40;;
71606;SDS011;60641;53.556;9.914;2022-11-11T09:20:53;18.00;;;6.70;;
71606;SDS011;60641;53.556;9.914;2022-11-11T09:23:23;15.70;;;7.30;;
71606;SDS011;60641;53.556;9.914;2022-11-11T09:25:50;17.40;;;7.60;;
71606;SDS011;60641;53.556;9.914;2022-11-11T09:28:17;18.70;;;8.30;;
71606;SDS011;60641;53.556;9.914;2022-11-11T09:30:43;18.80;;;7.10;;
71606;SDS011;60641;53.556;9.914;2022-11-11T09:33:10;17.70;;;8.60;;
71606;SDS011;60641;53.556;9.914;2022-11-11T09:35:38;16.40;;;7.20;;
71606;SDS011;60641;53.556;9.914;2022-11-11T09:38:04;18.80;;;8.30;;
71606;SDS011;60641;53.556;9.914;2022-11-11T09:43:51;17.90;;;7.70;;
71606;SDS011;60641;53.556;9.914;2022-11-11T09:46:38;16.60;;;7.30;;
71606;SDS011;60641;53.556;9.914;2022-11-11T09:54:34;17.20;;;7.90;;
71606;SDS011;60641;53.556;9.914;2022-11-11T09:57:52;20.50;;;7.80;;
71606;SDS011;60641;53.556;9.914;2022-11-11T10:00:08;18.10;;;8.00;;
71606;SDS011;60641;53.556;9.914;2022-11-11T10:03:07;17.90;;;8.50;;
71606;SDS011;60641;53.556;9.914;2022-11-11T10:05:50;19.00;;;8.00;;
71606;SDS011;60641;53.556;9.914;2022-11-11T10:08:27;18.20;;;7.30;;
71606;SDS011;60641;53.556;9.914;2022-11-11T10:10:57;15.00;;;7.30;;
71606;SDS011;60641;53.556;9.914;2022-11-11T10:13:28;18.20;;;7.80;;
71606;SDS011;60641;53.556;9.914;2022-11-11T10:22:09;16.50;;;7.60;;
71606;SDS011;60641;53.556;9.914;2022-11-11T10:27:28;15.30;;;7.70;;
71606;SDS011;60641;53.556;9.914;2022-11-11T10:29:54;19.40;;;7.80;;
71606;SDS011;60641;53.556;9.914;2022-11-11T10:32:25;17.10;;;8.50;;
71606;SDS011;60641;53.556;9.914;2022-11-11T10:34:53;14.90;;;7.50;;
71606;SDS011;60641;53.556;9.914;2022-11-11T10:37:38;20.70;;;8.30;;
71606;SDS011;60641;53.556;9.914;2022-11-11T10:40:12;17.40;;;8.30;;
71606;SDS011;60641;53.556;9.914;2022-11-11T10:42:43;19.00;;;8.20;;
71606;SDS011;60641;53.556;9.914;2022-11-11T10:45:12;16.40;;;7.90;;
71606;SDS011;60641;53.556;9.914;2022-11-11T10:47:51;17.00;;;7.90;;
71606;SDS011;60641;53.556;9.914;2022-11-11T10:50:39;19.00;;;7.80;;
71606;SDS011;60641;53.556;9.914;2022-11-11T11:01:57;12.90;;;7.10;;
71606;SDS011;60641;53.556;9.914;2022-11-11T11:04:40;23.80;;;8.00;;
71606;SDS011;60641;53.556;9.914;2022-11-11T11:07:12;16.90;;;7.20;;
71606;SDS011;60641;53.556;9.914;2022-11-11T11:09:44;16.40;;;7.70;;
71606;SDS011;60641;53.556;9.914;2022-11-11T11:12:17;16.00;;;7.40;;
71606;SDS011;60641;53.556;9.914;2022-11-11T11:14:47;17.00;;;8.20;;
71606;SDS011;60641;53.556;9.914;2022-11-11T11:17:28;14.40;;;7.90;;
71606;SDS011;60641;53.556;9.914;2022-11-11T11:20:07;18.30;;;7.80;;
71606;SDS011;60641;53.556;9.914;2022-11-11T11:25:15;19.70;;;8.60;;
71606;SDS011;60641;53.556;9.914;2022-11-11T11:27:42;18.20;;;8.40;;
71606;SDS011;60641;53.556;9.914;2022-11-11T11:30:30;17.10;;;7.70;;
71606;SDS011;60641;53.556;9.914;2022-11-11T11:32:56;18.10;;;7.70;;
71606;SDS011;60641;53.556;9.914;2022-11-11T11:37:58;16.90;;;7.20;;
71606;SDS011;60641;53.556;9.914;2022-11-11T11:40:25;18.20;;;7.40;;
71606;SDS011;60641;53.556;9.914;2022-11-11T11:42:51;17.20;;;7.80;;
71606;SDS011;60641;53.556;9.914;2022-11-11T11:45:25;18.30;;;7.80;;
71606;SDS011;60641;53.556;9.914;2022-11-11T11:48:03;16.80;;;7.60;;
71606;SDS011;60641;53.556;9.914;2022-11-11T11:50:40;13.40;;;7.20;;
71606;SDS011;60641;53.556;9.914;2022-11-11T12:14:57;16.20;;;7.00;;
71606;SDS011;60641;53.556;9.914;2022-11-11T12:20:40;16.70;;;8.20;;
71606;SDS011;60641;53.556;9.914;2022-11-11T12:28:40;15.90;;;7.40;;
71606;SDS011;60641;53.556;9.914;2022-11-11T12:39:20;14.20;;;7.10;;
71606;SDS011;60641;53.556;9.914;2022-11-11T12:44:47;14.80;;;8.00;;
71606;SDS011;60641;53.556;9.914;2022-11-11T12:47:26;16.60;;;7.50;;
71606;SDS011;60641;53.556;9.914;2022-11-11T12:52:45;14.40;;;7.00;;
71606;SDS011;60641;53.556;9.914;2022-11-11T13:01:18;16.70;;;8.10;;
71606;SDS011;60641;53.556;9.914;2022-11-11T13:03:50;16.60;;;7.30;;
71606;SDS011;60641;53.556;9.914;2022-11-11T13:11:32;13.20;;;6.90;;
71606;SDS011;60641;53.556;9.914;2022-11-11T13:16:35;15.00;;;7.60;;
71606;SDS011;60641;53.556;9.914;2022-11-11T13:19:04;14.80;;;8.30;;
71606;SDS011;60641;53.556;9.914;2022-11-11T13:21:50;16.00;;;8.10;;
71606;SDS011;60641;53.556;9.914;2022-11-11T13:24:19;21.20;;;9.00;;
71606;SDS011;60641;53.556;9.914;2022-11-11T13:26:50;16.00;;;8.80;;
71606;SDS011;60641;53.556;9.914;2022-11-11T13:31:54;16.60;;;7.50;;
71606;SDS011;60641;53.556;9.914;2022-11-11T13:34:21;17.10;;;8.20;;
71606;SDS011;60641;53.556;9.914;2022-11-11T13:36:49;12.70;;;7.10;;
71606;SDS011;60641;53.556;9.914;2022-11-11T13:39:29;13.70;;;7.60;;
71606;SDS011;60641;53.556;9.914;2022-11-11T13:41:57;15.90;;;7.20;;
71606;SDS011;60641;53.556;9.914;2022-11-11T13:47:29;16.40;;;7.90;;
71606;SDS011;60641;53.556;9.914;2022-11-11T13:50:42;14.60;;;7.60;;
71606;SDS011;60641;53.556;9.914;2022-11-11T13:55:36;14.40;;;8.30;;
71606;SDS011;60641;53.556;9.914;2022-11-11T13:58:04;14.10;;;7.50;;
71606;SDS011;60641;53.556;9.914;2022-11-11T14:00:35;17.10;;;8.30;;
71606;SDS011;60641;53.556;9.914;2022-11-11T14:05:47;15.30;;;7.90;;
71606;SDS011;60641;53.556;9.914;2022-11-11T14:08:54;18.30;;;7.60;;
71606;SDS011;60641;53.556;9.914;2022-11-11T14:13:57;15.00;;;7.60;;
71606;SDS011;60641;53.556;9.914;2022-11-11T14:21:42;14.90;;;7.60;;
71606;SDS011;60641;53.556;9.914;2022-11-11T14:24:22;15.20;;;7.90;;
71606;SDS011;60641;53.556;9.914;2022-11-11T14:27:00;15.70;;;7.50;;
71606;SDS011;60641;53.556;9.914;2022-11-11T14:29:54;13.30;;;7.40;;
71606;SDS011;60641;53.556;9.914;2022-11-11T14:35:20;16.00;;;7.60;;
71606;SDS011;60641;53.556;9.914;2022-11-11T14:40:54;16.00;;;7.90;;
71606;SDS011;60641;53.556;9.914;2022-11-11T14:43:38;15.20;;;7.60;;
71606;SDS011;60641;53.556;9.914;2022-11-11T14:51:39;16.10;;;7.60;;
71606;SDS011;60641;53.556;9.914;2022-11-11T14:57:28;14.50;;;7.30;;
71606;SDS011;60641;53.556;9.914;2022-11-11T14:59:57;15.90;;;7.50;;
71606;SDS011;60641;53.556;9.914;2022-11-11T15:02:26;13.50;;;7.50;;
71606;SDS011;60641;53.556;9.914;2022-11-11T15:04:58;14.10;;;7.20;;
71606;SDS011;60641;53.556;9.914;2022-11-11T15:21:31;14.40;;;7.70;;
71606;SDS011;60641;53.556;9.914;2022-11-11T15:31:57;13.20;;;6.30;;
71606;SDS011;60641;53.556;9.914;2022-11-11T15:34:42;13.70;;;7.20;;
71606;SDS011;60641;53.556;9.914;2022-11-11T15:37:13;13.20;;;7.30;;
71606;SDS011;60641;53.556;9.914;2022-11-11T15:42:12;13.70;;;8.20;;
71606;SDS011;60641;53.556;9.914;2022-11-11T15:44:44;13.80;;;7.20;;
71606;SDS011;60641;53.556;9.914;2022-11-11T15:47:11;14.90;;;7.30;;
71606;SDS011;60641;53.556;9.914;2022-11-11T15:49:41;14.70;;;7.90;;
71606;SDS011;60641;53.556;9.914;2022-11-11T15:52:28;13.70;;;7.20;;
71606;SDS011;60641;53.556;9.914;2022-11-11T15:54:58;13.90;;;7.40;;
71606;SDS011;60641;53.556;9.914;2022-11-11T15:57:28;12.10;;;7.20;;
71606;SDS011;60641;53.556;9.914;2022-11-11T15:59:57;15.70;;;7.40;;
71606;SDS011;60641;53.556;9.914;2022-11-11T16:02:25;13.30;;;6.90;;
71606;SDS011;60641;53.556;9.914;2022-11-11T16:05:01;12.70;;;7.40;;
71606;SDS011;60641;53.556;9.914;2022-11-11T16:07:30;14.40;;;7.10;;
71606;SDS011;60641;53.556;9.914;2022-11-11T16:10:05;14.00;;;7.70;;
71606;SDS011;60641;53.556;9.914;2022-11-11T16:12:41;14.20;;;7.30;;
71606;SDS011;60641;53.556;9.914;2022-11-11T16:15:15;14.50;;;7.70;;
71606;SDS011;60641;53.556;9.914;2022-11-11T16:18:14;15.20;;;6.30;;
71606;SDS011;60641;53.556;9.914;2022-11-11T16:23:29;15.80;;;7.60;;
71606;SDS011;60641;53.556;9.914;2022-11-11T16:25:56;14.40;;;7.90;;
71606;SDS011;60641;53.556;9.914;2022-11-11T16:28:27;15.60;;;7.90;;
71606;SDS011;60641;53.556;9.914;2022-11-11T16:30:59;16.90;;;8.40;;
71606;SDS011;60641;53.556;9.914;2022-11-11T16:34:00;19.90;;;8.70;;
71606;SDS011;60641;53.556;9.914;2022-11-11T16:37:02;19.10;;;8.60;;
71606;SDS011;60641;53.556;9.914;2022-11-11T16:39:30;13.60;;;7.20;;
71606;SDS011;60641;53.556;9.914;2022-11-11T16:42:01;12.20;;;7.50;;
71606;SDS011;60641;53.556;9.914;2022-11-11T16:44:36;13.20;;;7.90;;
71606;SDS011;60641;53.556;9.914;2022-11-11T16:47:28;15.40;;;8.40;;
71606;SDS011;60641;53.556;9.914;2022-11-11T16:50:05;14.40;;;8.30;;
71606;SDS011;60641;53.556;9.914;2022-11-11T16:52:41;15.00;;;8.50;;
71606;SDS011;60641;53.556;9.914;2022-11-11T16:55:16;15.90;;;8.20;;
71606;SDS011;60641;53.556;9.914;2022-11-11T16:57:49;16.30;;;8.60;;
71606;SDS011;60641;53.556;9.914;2022-11-11T17:00:20;17.40;;;9.30;;
71606;SDS011;60641;53.556;9.914;2022-11-11T17:03:04;17.30;;;9.30;;
71606;SDS011;60641;53.556;9.914;2022-11-11T17:08:40;14.10;;;8.90;;
71606;SDS011;60641;53.556;9.914;2022-11-11T17:11:08;18.90;;;9.40;;
71606;SDS011;60641;53.556;9.914;2022-11-11T17:13:36;16.20;;;9.30;;
71606;SDS011;60641;53.556;9.914;2022-11-11T17:16:05;17.90;;;8.80;;
71606;SDS011;60641;53.556;9.914;2022-11-11T17:18:33;15.10;;;8.60;;
71606;SDS011;60641;53.556;9.914;2022-11-11T17:21:02;15.50;;;9.50;;
71606;SDS011;60641;53.556;9.914;2022-11-11T17:23:29;16.70;;;9.60;;
71606;SDS011;60641;53.556;9.914;2022-11-11T17:25:56;17.70;;;10.20;;
71606;SDS011;60641;53.556;9.914;2022-11-11T17:28:30;17.60;;;10.50;;
71606;SDS011;60641;53.556;9.914;2022-11-11T17:31:06;19.80;;;10.60;;
71606;SDS011;60641;53.556;9.914;2022-11-11T17:33:34;18.40;;;10.60;;
71606;SDS011;60641;53.556;9.914;2022-11-11T17:36:00;16.30;;;9.80;;
71606;SDS011;60641;53.556;9.914;2022-11-11T17:38:27;17.10;;;10.30;;
71606;SDS011;60641;53.556;9.914;2022-11-11T17:40:54;19.50;;;10.20;;
71606;SDS011;60641;53.556;9.914;2022-11-11T17:43:20;17.50;;;10.30;;
71606;SDS011;60641;53.556;9.914;2022-11-11T17:45:47;16.60;;;10.00;;
71606;SDS011;60641;53.556;9.914;2022-11-11T17:48:13;20.00;;;10.40;;